createdAt,value
2017-08-13T00:00:05.829Z,1006.9
2017-08-13T00:01:08.324Z,1006.9
2017-08-13T00:02:10.841Z,1006.9
2017-08-13T00:03:13.334Z,1007
2017-08-13T00:04:15.841Z,1006.9
2017-08-13T00:05:18.709Z,1007
2017-08-13T00:06:21.568Z,1007
2017-08-13T00:07:24.061Z,1006.9
2017-08-13T00:08:26.575Z,1007
2017-08-13T00:09:29.405Z,1006.9
2017-08-13T00:10:31.912Z,1007
2017-08-13T00:11:34.398Z,1006.9
2017-08-13T00:12:36.903Z,1006.9
2017-08-13T00:13:39.730Z,1006.9
2017-08-13T00:14:42.239Z,1006.9
2017-08-13T00:15:44.739Z,1006.9
2017-08-13T00:16:47.578Z,1006.9
2017-08-13T00:17:50.441Z,1006.9
2017-08-13T00:18:52.950Z,1007
2017-08-13T00:19:55.461Z,1007
2017-08-13T00:20:58.313Z,1006.9
2017-08-13T00:22:00.821Z,1006.9
2017-08-13T00:23:04.035Z,1007
2017-08-13T00:24:07.198Z,1007
2017-08-13T00:25:10.378Z,1006.9
2017-08-13T00:26:13.238Z,1006.9
2017-08-13T00:27:16.078Z,1006.9
2017-08-13T00:28:18.939Z,1007
2017-08-13T00:29:21.796Z,1006.9
2017-08-13T00:30:24.657Z,1007
2017-08-13T00:31:27.168Z,1007
2017-08-13T00:32:29.671Z,1007
2017-08-13T00:33:32.152Z,1007
2017-08-13T00:34:35.007Z,1007
2017-08-13T00:35:37.509Z,1007
2017-08-13T00:36:40.025Z,1007
2017-08-13T00:37:42.863Z,1007
2017-08-13T00:38:45.362Z,1007
2017-08-13T00:39:47.865Z,1007
2017-08-13T00:40:50.389Z,1007
2017-08-13T00:41:53.227Z,1007
2017-08-13T00:42:55.731Z,1007
2017-08-13T00:43:58.243Z,1007
2017-08-13T00:45:01.092Z,1007
2017-08-13T00:46:04.972Z,1007
2017-08-13T00:47:07.821Z,1007
2017-08-13T00:48:10.982Z,1007
2017-08-13T00:49:13.833Z,1007
2017-08-13T00:50:16.674Z,1007
2017-08-13T00:51:19.521Z,1007.1
2017-08-13T00:52:22.714Z,1007
2017-08-13T00:53:25.228Z,1007
2017-08-13T00:54:28.406Z,1007
2017-08-13T00:55:30.908Z,1007.1
2017-08-13T00:56:33.761Z,1007.1
2017-08-13T00:57:36.280Z,1007.1
2017-08-13T00:58:38.772Z,1007.1
2017-08-13T00:59:41.282Z,1007.1
2017-08-13T01:00:43.789Z,1007.2
2017-08-13T01:01:46.292Z,1007.2
2017-08-13T01:02:48.803Z,1007.2
2017-08-13T01:03:51.326Z,1007.2
2017-08-13T01:04:54.160Z,1007.2
2017-08-13T01:05:56.668Z,1007.2
2017-08-13T01:06:59.512Z,1007.2
2017-08-13T01:08:02.020Z,1007.2
2017-08-13T01:09:04.860Z,1007.2
2017-08-13T01:10:07.689Z,1007.2
2017-08-13T01:11:10.544Z,1007.2
2017-08-13T01:12:13.401Z,1007.2
2017-08-13T01:13:15.915Z,1007.3
2017-08-13T01:14:18.759Z,1007.2
2017-08-13T01:15:21.624Z,1007.2
2017-08-13T01:16:24.152Z,1007.2
2017-08-13T01:17:26.656Z,1007.2
2017-08-13T01:18:29.171Z,1007.2
2017-08-13T01:19:31.669Z,1007.2
2017-08-13T01:20:34.865Z,1007.2
2017-08-13T01:21:37.378Z,1007.2
2017-08-13T01:22:40.213Z,1007.2
2017-08-13T01:23:43.052Z,1007.2
2017-08-13T01:24:45.893Z,1007.2
2017-08-13T01:25:48.406Z,1007.2
2017-08-13T01:26:50.913Z,1007.2
2017-08-13T01:27:53.445Z,1007.2
2017-08-13T01:28:55.944Z,1007.2
2017-08-13T01:29:58.464Z,1007.3
2017-08-13T01:31:00.970Z,1007.3
2017-08-13T01:32:03.496Z,1007.2
2017-08-13T01:33:06.330Z,1007.3
2017-08-13T01:34:08.844Z,1007.3
2017-08-13T01:35:11.677Z,1007.3
2017-08-13T01:36:14.543Z,1007.3
2017-08-13T01:37:17.041Z,1007.3
2017-08-13T01:38:19.552Z,1007.3
2017-08-13T01:39:22.050Z,1007.3
2017-08-13T01:40:24.901Z,1007.4
2017-08-13T01:41:27.395Z,1007.4
2017-08-13T01:42:29.909Z,1007.4
2017-08-13T01:43:32.395Z,1007.5
2017-08-13T01:44:34.912Z,1007.4
2017-08-13T01:45:38.093Z,1007.4
2017-08-13T01:46:40.605Z,1007.3
2017-08-13T01:47:43.113Z,1007.4
2017-08-13T01:48:46.291Z,1007.4
2017-08-13T01:49:48.795Z,1007.4
2017-08-13T01:50:51.966Z,1007.4
2017-08-13T01:51:54.809Z,1007.4
2017-08-13T01:52:57.305Z,1007.4
2017-08-13T01:53:59.815Z,1007.4
2017-08-13T01:55:03.346Z,1007.4
2017-08-13T01:56:05.857Z,1007.4
2017-08-13T01:57:08.394Z,1007.4
2017-08-13T01:58:11.238Z,1007.4
2017-08-13T01:59:13.742Z,1007.4
2017-08-13T02:00:16.606Z,1007.4
2017-08-13T02:01:19.443Z,1007.4
2017-08-13T02:02:22.290Z,1007.4
2017-08-13T02:03:24.806Z,1007.4
2017-08-13T02:04:27.328Z,1007.4
2017-08-13T02:05:29.829Z,1007.4
2017-08-13T02:06:32.346Z,1007.4
2017-08-13T02:07:34.836Z,1007.4
2017-08-13T02:08:37.330Z,1007.4
2017-08-13T02:09:39.837Z,1007.5
2017-08-13T02:10:42.688Z,1007.4
2017-08-13T02:11:45.186Z,1007.5
2017-08-13T02:12:47.708Z,1007.5
2017-08-13T02:13:50.525Z,1007.5
2017-08-13T02:14:53.037Z,1007.4
2017-08-13T02:15:55.542Z,1007.4
2017-08-13T02:16:58.062Z,1007.4
2017-08-13T02:18:00.556Z,1007.5
2017-08-13T02:19:03.400Z,1007.5
2017-08-13T02:20:05.909Z,1007.5
2017-08-13T02:21:08.408Z,1007.5
2017-08-13T02:22:11.601Z,1007.5
2017-08-13T02:23:14.111Z,1007.5
2017-08-13T02:24:16.600Z,1007.5
2017-08-13T02:25:19.112Z,1007.5
2017-08-13T02:26:21.617Z,1007.6
2017-08-13T02:27:24.155Z,1007.5
2017-08-13T02:28:26.710Z,1007.6
2017-08-13T02:29:29.220Z,1007.6
2017-08-13T02:30:31.723Z,1007.6
2017-08-13T02:31:34.242Z,1007.6
2017-08-13T02:32:37.435Z,1007.6
2017-08-13T02:33:40.304Z,1007.6
2017-08-13T02:34:43.170Z,1007.6
2017-08-13T02:35:45.662Z,1007.7
2017-08-13T02:36:48.870Z,1007.7
2017-08-13T02:37:51.744Z,1007.7
2017-08-13T02:38:54.603Z,1007.7
2017-08-13T02:39:57.109Z,1007.7
2017-08-13T02:40:59.616Z,1007.7
2017-08-13T02:42:02.127Z,1007.7
2017-08-13T02:43:04.637Z,1007.7
2017-08-13T02:44:07.141Z,1007.7
2017-08-13T02:45:09.632Z,1007.7
2017-08-13T02:46:12.157Z,1007.7
2017-08-13T02:47:14.671Z,1007.7
2017-08-13T02:48:17.177Z,1007.7
2017-08-13T02:49:19.677Z,1007.7
2017-08-13T02:50:22.548Z,1007.7
2017-08-13T02:51:25.097Z,1007.7
2017-08-13T02:52:27.943Z,1007.6
2017-08-13T02:53:31.140Z,1007.6
2017-08-13T02:54:33.652Z,1007.6
2017-08-13T02:55:36.848Z,1007.6
2017-08-13T02:56:39.356Z,1007.7
2017-08-13T02:57:41.876Z,1007.7
2017-08-13T02:58:44.367Z,1007.6
2017-08-13T02:59:46.895Z,1007.7
2017-08-13T03:00:49.418Z,1007.7
2017-08-13T03:01:51.911Z,1007.7
2017-08-13T03:02:54.774Z,1007.7
2017-08-13T03:03:57.622Z,1007.7
2017-08-13T03:05:00.820Z,1007.7
2017-08-13T03:06:03.999Z,1007.7
2017-08-13T03:07:07.180Z,1007.7
2017-08-13T03:08:09.690Z,1007.7
2017-08-13T03:09:12.206Z,1007.7
2017-08-13T03:10:14.705Z,1007.7
2017-08-13T03:11:17.210Z,1007.7
2017-08-13T03:12:19.718Z,1007.7
2017-08-13T03:13:22.233Z,1007.7
2017-08-13T03:14:25.079Z,1007.7
2017-08-13T03:15:27.914Z,1007.7
2017-08-13T03:16:30.414Z,1007.8
2017-08-13T03:17:33.251Z,1007.7
2017-08-13T03:18:35.770Z,1007.8
2017-08-13T03:19:38.598Z,1007.8
2017-08-13T03:20:41.085Z,1007.8
2017-08-13T03:21:43.585Z,1007.8
2017-08-13T03:22:46.126Z,1007.8
2017-08-13T03:23:48.958Z,1007.8
2017-08-13T03:24:51.463Z,1007.8
2017-08-13T03:25:53.980Z,1007.8
2017-08-13T03:26:56.467Z,1007.8
2017-08-13T03:27:58.995Z,1007.9
2017-08-13T03:29:01.496Z,1007.8
2017-08-13T03:30:04.344Z,1007.9
2017-08-13T03:31:06.882Z,1007.9
2017-08-13T03:32:09.402Z,1007.9
2017-08-13T03:33:12.251Z,1007.9
2017-08-13T03:34:14.775Z,1007.9
2017-08-13T03:35:17.606Z,1007.9
2017-08-13T03:36:20.118Z,1008
2017-08-13T03:37:23.286Z,1008
2017-08-13T03:38:25.795Z,1008
2017-08-13T03:39:28.292Z,1008
2017-08-13T03:40:30.803Z,1008
2017-08-13T03:41:33.287Z,1008
2017-08-13T03:42:35.801Z,1008
2017-08-13T03:43:38.302Z,1008
2017-08-13T03:44:40.802Z,1008
2017-08-13T03:45:43.308Z,1008
2017-08-13T03:46:45.814Z,1008.1
2017-08-13T03:47:48.666Z,1008
2017-08-13T03:48:51.163Z,1008
2017-08-13T03:49:54.004Z,1008
2017-08-13T03:50:56.509Z,1008
2017-08-13T03:51:59.037Z,1008.1
2017-08-13T03:53:01.533Z,1008
2017-08-13T03:54:04.032Z,1008.1
2017-08-13T03:55:06.881Z,1008.1
2017-08-13T03:56:09.399Z,1008.1
2017-08-13T03:57:11.920Z,1008.2
2017-08-13T03:58:14.428Z,1008.1
2017-08-13T03:59:17.245Z,1008.1
2017-08-13T04:00:19.752Z,1008.2
2017-08-13T04:01:22.269Z,1008.2
2017-08-13T04:02:24.764Z,1008.2
2017-08-13T04:03:27.270Z,1008.2
2017-08-13T04:04:30.140Z,1008.2
2017-08-13T04:05:32.641Z,1008.2
2017-08-13T04:06:35.150Z,1008.2
2017-08-13T04:07:37.653Z,1008.2
2017-08-13T04:08:40.145Z,1008.2
2017-08-13T04:09:42.986Z,1008.2
2017-08-13T04:10:45.843Z,1008.2
2017-08-13T04:11:48.673Z,1008.3
2017-08-13T04:12:51.187Z,1008.3
2017-08-13T04:13:53.683Z,1008.3
2017-08-13T04:14:56.194Z,1008.3
2017-08-13T04:15:59.076Z,1008.3
2017-08-13T04:17:01.576Z,1008.3
2017-08-13T04:18:04.088Z,1008.3
2017-08-13T04:19:06.583Z,1008.3
2017-08-13T04:20:09.093Z,1008.4
2017-08-13T04:21:11.598Z,1008.4
2017-08-13T04:22:14.114Z,1008.4
2017-08-13T04:23:16.603Z,1008.4
2017-08-13T04:24:19.453Z,1008.4
2017-08-13T04:25:21.943Z,1008.4
2017-08-13T04:26:24.801Z,1008.4
2017-08-13T04:27:27.313Z,1008.5
2017-08-13T04:28:30.227Z,1008.4
2017-08-13T04:29:33.417Z,1008.5
2017-08-13T04:30:35.921Z,1008.5
2017-08-13T04:31:38.756Z,1008.5
2017-08-13T04:32:41.290Z,1008.6
2017-08-13T04:33:43.780Z,1008.6
2017-08-13T04:34:46.632Z,1008.6
2017-08-13T04:35:49.463Z,1008.6
2017-08-13T04:36:51.964Z,1008.7
2017-08-13T04:37:55.488Z,1008.7
2017-08-13T04:38:57.993Z,1008.7
2017-08-13T04:40:00.502Z,1008.7
2017-08-13T04:41:03.697Z,1008.7
2017-08-13T04:42:06.195Z,1008.7
2017-08-13T04:43:08.717Z,1008.8
2017-08-13T04:44:11.235Z,1008.8
2017-08-13T04:45:13.724Z,1008.8
2017-08-13T04:46:16.226Z,1008.8
2017-08-13T04:47:18.744Z,1008.8
2017-08-13T04:48:21.247Z,1008.8
2017-08-13T04:49:23.736Z,1008.8
2017-08-13T04:50:26.235Z,1008.8
2017-08-13T04:51:28.749Z,1008.8
2017-08-13T04:52:31.244Z,1008.9
2017-08-13T04:53:33.753Z,1008.9
2017-08-13T04:54:36.259Z,1008.9
2017-08-13T04:55:38.766Z,1008.9
2017-08-13T04:56:41.282Z,1009
2017-08-13T04:57:43.793Z,1009
2017-08-13T04:58:46.290Z,1009
2017-08-13T04:59:48.799Z,1009
2017-08-13T05:00:51.647Z,1009
2017-08-13T05:01:54.148Z,1009
2017-08-13T05:02:56.647Z,1009.1
2017-08-13T05:03:59.489Z,1009.1
2017-08-13T05:05:02.350Z,1009.1
2017-08-13T05:06:04.847Z,1009.1
2017-08-13T05:07:07.374Z,1009.2
2017-08-13T05:08:09.874Z,1009.2
2017-08-13T05:09:12.393Z,1009.2
2017-08-13T05:10:15.239Z,1009.2
2017-08-13T05:11:17.752Z,1009.2
2017-08-13T05:12:20.256Z,1009.2
2017-08-13T05:13:23.116Z,1009.2
2017-08-13T05:14:25.604Z,1009.2
2017-08-13T05:15:28.469Z,1009.3
2017-08-13T05:16:30.976Z,1009.3
2017-08-13T05:17:33.474Z,1009.3
2017-08-13T05:18:35.982Z,1009.3
2017-08-13T05:19:38.486Z,1009.3
2017-08-13T05:20:40.989Z,1009.3
2017-08-13T05:21:43.494Z,1009.4
2017-08-13T05:22:46.028Z,1009.3
2017-08-13T05:23:48.868Z,1009.3
2017-08-13T05:24:51.721Z,1009.4
2017-08-13T05:25:54.227Z,1009.3
2017-08-13T05:26:57.071Z,1009.4
2017-08-13T05:27:59.565Z,1009.4
2017-08-13T05:29:02.073Z,1009.4
2017-08-13T05:30:04.561Z,1009.5
2017-08-13T05:31:07.080Z,1009.5
2017-08-13T05:32:09.961Z,1009.5
2017-08-13T05:33:12.790Z,1009.5
2017-08-13T05:34:15.655Z,1009.5
2017-08-13T05:35:18.160Z,1009.5
2017-08-13T05:36:20.678Z,1009.5
2017-08-13T05:37:23.177Z,1009.5
2017-08-13T05:38:25.680Z,1009.5
2017-08-13T05:39:28.510Z,1009.5
2017-08-13T05:40:32.062Z,1009.5
2017-08-13T05:41:34.592Z,1009.5
2017-08-13T05:42:37.091Z,1009.5
2017-08-13T05:43:39.610Z,1009.5
2017-08-13T05:44:42.101Z,1009.5
2017-08-13T05:45:44.610Z,1009.5
2017-08-13T05:46:47.815Z,1009.6
2017-08-13T05:47:50.321Z,1009.6
2017-08-13T05:48:52.821Z,1009.6
2017-08-13T05:49:55.662Z,1009.6
2017-08-13T05:50:58.169Z,1009.6
2017-08-13T05:52:00.675Z,1009.6
2017-08-13T05:53:03.176Z,1009.6
2017-08-13T05:54:06.022Z,1009.6
2017-08-13T05:55:08.864Z,1009.7
2017-08-13T05:56:11.384Z,1009.7
2017-08-13T05:57:13.879Z,1009.7
2017-08-13T05:58:16.379Z,1009.7
2017-08-13T05:59:18.875Z,1009.7
2017-08-13T06:00:21.393Z,1009.7
2017-08-13T06:01:24.236Z,1009.7
2017-08-13T06:02:26.744Z,1009.7
2017-08-13T06:03:29.595Z,1009.8
2017-08-13T06:04:32.112Z,1009.8
2017-08-13T06:05:34.615Z,1009.8
2017-08-13T06:06:37.481Z,1009.8
2017-08-13T06:07:40.000Z,1009.9
2017-08-13T06:08:42.495Z,1009.8
2017-08-13T06:09:44.989Z,1009.8
2017-08-13T06:10:47.836Z,1009.9
2017-08-13T06:11:50.330Z,1009.9
2017-08-13T06:12:52.848Z,1009.9
2017-08-13T06:13:55.337Z,1010
2017-08-13T06:14:57.860Z,1010
2017-08-13T06:16:00.720Z,1010.1
2017-08-13T06:17:03.231Z,1010.1
2017-08-13T06:18:06.112Z,1010.1
2017-08-13T06:19:08.955Z,1010.1
2017-08-13T06:20:11.804Z,1010.1
2017-08-13T06:21:14.315Z,1010.1
2017-08-13T06:22:17.186Z,1010.1
2017-08-13T06:23:19.697Z,1010.1
2017-08-13T06:24:22.194Z,1010
2017-08-13T06:25:24.704Z,1010
2017-08-13T06:26:27.225Z,1010.1
2017-08-13T06:27:29.750Z,1010.1
2017-08-13T06:28:32.612Z,1010.1
2017-08-13T06:29:35.113Z,1010.1
2017-08-13T06:30:37.610Z,1010.1
2017-08-13T06:31:40.146Z,1010.1
2017-08-13T06:32:42.640Z,1010.1
2017-08-13T06:33:45.155Z,1010.1
2017-08-13T06:34:47.996Z,1010.1
2017-08-13T06:35:50.522Z,1010.1
2017-08-13T06:36:53.037Z,1010.1
2017-08-13T06:37:55.876Z,1010.1
2017-08-13T06:38:58.370Z,1010.1
2017-08-13T06:40:00.883Z,1010.2
2017-08-13T06:41:03.748Z,1010.2
2017-08-13T06:42:06.590Z,1010.2
2017-08-13T06:43:09.107Z,1010.2
2017-08-13T06:44:11.608Z,1010.2
2017-08-13T06:45:14.123Z,1010.2
2017-08-13T06:46:16.646Z,1010.3
2017-08-13T06:47:19.169Z,1010.2
2017-08-13T06:48:21.709Z,1010.2
2017-08-13T06:49:24.215Z,1010.3
2017-08-13T06:50:26.729Z,1010.3
2017-08-13T06:51:29.224Z,1010.2
2017-08-13T06:52:32.085Z,1010.3
2017-08-13T06:53:34.606Z,1010.3
2017-08-13T06:54:37.467Z,1010.3
2017-08-13T06:55:40.341Z,1010.3
2017-08-13T06:56:42.843Z,1010.3
2017-08-13T06:57:45.349Z,1010.3
2017-08-13T06:58:48.201Z,1010.4
2017-08-13T06:59:50.719Z,1010.3
2017-08-13T07:00:53.562Z,1010.3
2017-08-13T07:01:56.424Z,1010.4
2017-08-13T07:02:59.254Z,1010.5
2017-08-13T07:04:02.103Z,1010.5
2017-08-13T07:05:04.629Z,1010.5
2017-08-13T07:06:07.471Z,1010.5
2017-08-13T07:07:10.329Z,1010.5
2017-08-13T07:08:13.166Z,1010.5
2017-08-13T07:09:15.673Z,1010.5
2017-08-13T07:10:18.187Z,1010.5
2017-08-13T07:11:20.706Z,1010.5
2017-08-13T07:12:23.570Z,1010.6
2017-08-13T07:13:26.103Z,1010.6
2017-08-13T07:14:28.604Z,1010.6
2017-08-13T07:15:31.118Z,1010.6
2017-08-13T07:16:33.612Z,1010.7
2017-08-13T07:17:36.130Z,1010.6
2017-08-13T07:18:38.652Z,1010.6
2017-08-13T07:19:41.152Z,1010.7
2017-08-13T07:20:44.017Z,1010.7
2017-08-13T07:21:46.533Z,1010.7
2017-08-13T07:22:49.065Z,1010.7
2017-08-13T07:23:51.564Z,1010.7
2017-08-13T07:24:54.075Z,1010.7
2017-08-13T07:25:56.593Z,1010.7
2017-08-13T07:26:59.094Z,1010.7
2017-08-13T07:28:01.597Z,1010.7
2017-08-13T07:29:04.453Z,1010.7
2017-08-13T07:30:06.953Z,1010.6
2017-08-13T07:31:09.821Z,1010.7
2017-08-13T07:32:12.336Z,1010.7
2017-08-13T07:33:14.845Z,1010.7
2017-08-13T07:34:17.684Z,1010.7
2017-08-13T07:35:20.192Z,1010.7
2017-08-13T07:36:22.701Z,1010.7
2017-08-13T07:37:25.239Z,1010.7
2017-08-13T07:38:27.754Z,1010.7
2017-08-13T07:39:30.605Z,1010.7
2017-08-13T07:40:33.114Z,1010.7
2017-08-13T07:41:35.648Z,1010.7
2017-08-13T07:42:38.158Z,1010.7
2017-08-13T07:43:41.024Z,1010.7
2017-08-13T07:44:43.517Z,1010.7
2017-08-13T07:45:46.046Z,1010.8
2017-08-13T07:46:48.876Z,1010.8
2017-08-13T07:47:51.396Z,1010.7
2017-08-13T07:48:53.913Z,1010.8
2017-08-13T07:49:57.092Z,1010.7
2017-08-13T07:50:59.624Z,1010.7
2017-08-13T07:52:02.504Z,1010.8
2017-08-13T07:53:05.001Z,1010.8
2017-08-13T07:54:07.514Z,1010.8
2017-08-13T07:55:10.037Z,1010.8
2017-08-13T07:56:12.543Z,1010.8
2017-08-13T07:57:15.398Z,1010.8
2017-08-13T07:58:18.270Z,1010.8
2017-08-13T07:59:21.116Z,1010.9
2017-08-13T08:00:23.975Z,1010.8
2017-08-13T08:01:26.822Z,1010.9
2017-08-13T08:02:30.361Z,1010.8
2017-08-13T08:03:33.206Z,1010.8
2017-08-13T08:04:35.702Z,1010.8
2017-08-13T08:05:38.584Z,1010.9
2017-08-13T08:06:41.098Z,1010.9
2017-08-13T08:07:43.599Z,1010.8
2017-08-13T08:08:46.123Z,1010.8
2017-08-13T08:09:48.970Z,1010.9
2017-08-13T08:10:51.481Z,1010.9
2017-08-13T08:11:53.998Z,1010.9
2017-08-13T08:12:56.523Z,1010.9
2017-08-13T08:13:59.034Z,1011
2017-08-13T08:15:01.549Z,1011
2017-08-13T08:16:04.405Z,1011
2017-08-13T08:17:06.929Z,1011
2017-08-13T08:18:09.462Z,1010.9
2017-08-13T08:19:12.332Z,1011
2017-08-13T08:20:15.198Z,1011
2017-08-13T08:21:17.696Z,1011
2017-08-13T08:22:20.225Z,1011
2017-08-13T08:23:22.793Z,1011.1
2017-08-13T08:24:25.306Z,1011.1
2017-08-13T08:25:27.822Z,1011.1
2017-08-13T08:26:30.661Z,1011.1
2017-08-13T08:27:33.163Z,1011.1
2017-08-13T08:28:35.712Z,1011.1
2017-08-13T08:29:38.574Z,1011.1
2017-08-13T08:30:41.075Z,1011.2
2017-08-13T08:31:43.602Z,1011.2
2017-08-13T08:32:46.122Z,1011.2
2017-08-13T08:33:48.983Z,1011.1
2017-08-13T08:34:51.510Z,1011.2
2017-08-13T08:35:54.014Z,1011.2
2017-08-13T08:36:56.858Z,1011.2
2017-08-13T08:37:59.365Z,1011.2
2017-08-13T08:39:02.594Z,1011.2
2017-08-13T08:40:05.109Z,1011.2
2017-08-13T08:41:07.621Z,1011.2
2017-08-13T08:42:10.127Z,1011.2
2017-08-13T08:43:12.689Z,1011.2
2017-08-13T08:44:15.524Z,1011.3
2017-08-13T08:45:18.030Z,1011.3
2017-08-13T08:46:20.533Z,1011.2
2017-08-13T08:47:23.050Z,1011.2
2017-08-13T08:48:25.576Z,1011.2
2017-08-13T08:49:28.307Z,1011.2
2017-08-13T08:50:30.845Z,1011.1
2017-08-13T08:51:33.733Z,1011.2
2017-08-13T08:52:36.265Z,1011.2
2017-08-13T08:53:39.241Z,1011.2
2017-08-13T08:54:44.110Z,1011.2
2017-08-13T08:55:47.299Z,1011.2
2017-08-13T08:56:49.834Z,1011.3
2017-08-13T08:57:52.355Z,1011.3
2017-08-13T08:58:54.872Z,1011.3
2017-08-13T08:59:57.733Z,1011.3
2017-08-13T09:01:00.256Z,1011.3
2017-08-13T09:02:02.775Z,1011.3
2017-08-13T09:03:05.620Z,1011.3
2017-08-13T09:04:08.543Z,1011.4
2017-08-13T09:05:11.580Z,1011.3
2017-08-13T09:06:14.090Z,1011.3
2017-08-13T09:07:23.080Z,1011.3
2017-08-13T09:08:25.940Z,1011.3
2017-08-13T09:09:28.439Z,1011.3
2017-08-13T09:10:30.943Z,1011.4
2017-08-13T09:11:33.467Z,1011.4
2017-08-13T09:12:36.653Z,1011.5
2017-08-13T09:13:39.563Z,1011.4
2017-08-13T09:14:43.023Z,1011.3
2017-08-13T09:15:45.531Z,1011.4
2017-08-13T09:16:48.045Z,1011.3
2017-08-13T09:17:51.255Z,1011.3
2017-08-13T09:18:54.105Z,1011.3
2017-08-13T09:19:56.627Z,1011.4
2017-08-13T09:20:59.132Z,1011.4
2017-08-13T09:22:01.981Z,1011.4
2017-08-13T09:23:04.486Z,1011.4
2017-08-13T09:24:07.002Z,1011.4
2017-08-13T09:25:09.512Z,1011.5
2017-08-13T09:26:12.000Z,1011.5
2017-08-13T09:27:14.509Z,1011.5
2017-08-13T09:28:17.007Z,1011.5
2017-08-13T09:29:19.503Z,1011.5
2017-08-13T09:30:22.355Z,1011.5
2017-08-13T09:31:24.864Z,1011.5
2017-08-13T09:32:27.378Z,1011.5
2017-08-13T09:33:30.234Z,1011.5
2017-08-13T09:34:33.079Z,1011.5
2017-08-13T09:35:35.906Z,1011.5
2017-08-13T09:36:38.423Z,1011.5
2017-08-13T09:37:41.607Z,1011.5
2017-08-13T09:38:44.113Z,1011.5
2017-08-13T09:39:46.619Z,1011.4
2017-08-13T09:40:50.477Z,1011.5
2017-08-13T09:41:52.977Z,1011.5
2017-08-13T09:42:55.514Z,1011.5
2017-08-13T09:43:58.873Z,1011.5
2017-08-13T09:45:01.382Z,1011.5
2017-08-13T09:46:04.244Z,1011.5
2017-08-13T09:47:06.759Z,1011.5
2017-08-13T09:48:09.262Z,1011.5
2017-08-13T09:49:11.773Z,1011.5
2017-08-13T09:50:14.634Z,1011.4
2017-08-13T09:51:17.144Z,1011.5
2017-08-13T09:52:19.630Z,1011.5
2017-08-13T09:53:22.834Z,1011.5
2017-08-13T09:54:25.344Z,1011.5
2017-08-13T09:55:28.209Z,1011.4
2017-08-13T09:56:31.069Z,1011.5
2017-08-13T09:57:33.579Z,1011.4
2017-08-13T09:58:36.425Z,1011.5
2017-08-13T09:59:38.953Z,1011.5
2017-08-13T10:00:41.482Z,1011.5
2017-08-13T10:01:43.989Z,1011.5
2017-08-13T10:02:46.499Z,1011.5
2017-08-13T10:03:49.350Z,1011.5
2017-08-13T10:04:51.868Z,1011.5
2017-08-13T10:05:54.711Z,1011.5
2017-08-13T10:06:57.234Z,1011.5
2017-08-13T10:07:59.752Z,1011.5
2017-08-13T10:09:02.596Z,1011.5
2017-08-13T10:10:05.091Z,1011.5
2017-08-13T10:11:07.614Z,1011.5
2017-08-13T10:12:10.458Z,1011.5
2017-08-13T10:13:12.950Z,1011.5
2017-08-13T10:14:15.779Z,1011.5
2017-08-13T10:15:18.258Z,1011.5
2017-08-13T10:16:20.736Z,1011.5
2017-08-13T10:17:23.555Z,1011.5
2017-08-13T10:18:26.033Z,1011.5
2017-08-13T10:19:28.866Z,1011.6
2017-08-13T10:20:31.360Z,1011.5
2017-08-13T10:21:34.602Z,1011.6
2017-08-13T10:22:37.433Z,1011.6
2017-08-13T10:23:40.282Z,1011.6
2017-08-13T10:24:43.112Z,1011.6
2017-08-13T10:25:45.602Z,1011.6
2017-08-13T10:26:48.457Z,1011.6
2017-08-13T10:27:51.323Z,1011.6
2017-08-13T10:28:54.161Z,1011.7
2017-08-13T10:29:56.667Z,1011.7
2017-08-13T10:30:59.165Z,1011.7
2017-08-13T10:32:01.991Z,1011.7
2017-08-13T10:33:04.484Z,1011.7
2017-08-13T10:34:07.004Z,1011.7
2017-08-13T10:35:09.826Z,1011.7
2017-08-13T10:36:12.350Z,1011.7
2017-08-13T10:37:14.841Z,1011.8
2017-08-13T10:38:17.342Z,1011.8
2017-08-13T10:39:19.843Z,1011.8
2017-08-13T10:40:22.339Z,1011.8
2017-08-13T10:41:25.162Z,1011.8
2017-08-13T10:42:28.033Z,1011.8
2017-08-13T10:43:30.535Z,1011.8
2017-08-13T10:44:33.027Z,1011.8
2017-08-13T10:45:35.524Z,1011.8
2017-08-13T10:46:38.015Z,1011.8
2017-08-13T10:47:40.499Z,1011.9
2017-08-13T10:48:43.011Z,1011.9
2017-08-13T10:49:45.507Z,1011.9
2017-08-13T10:50:48.031Z,1012
2017-08-13T10:51:51.223Z,1012
2017-08-13T10:52:54.061Z,1012.1
2017-08-13T10:53:56.557Z,1012.1
2017-08-13T10:54:59.059Z,1012.2
2017-08-13T10:56:01.550Z,1012.2
2017-08-13T10:57:04.420Z,1012.2
2017-08-13T10:58:07.596Z,1012.3
2017-08-13T10:59:10.110Z,1012.3
2017-08-13T11:00:13.276Z,1012.3
2017-08-13T11:01:15.794Z,1012.2
2017-08-13T11:02:18.286Z,1012.3
2017-08-13T11:03:20.783Z,1012.2
2017-08-13T11:04:23.314Z,1012.3
2017-08-13T11:05:25.833Z,1012.2
2017-08-13T11:06:29.700Z,1012.3
2017-08-13T11:07:32.210Z,1012.3
2017-08-13T11:08:34.699Z,1012.3
2017-08-13T11:09:37.193Z,1012.3
2017-08-13T11:10:39.685Z,1012.3
2017-08-13T11:11:42.193Z,1012.3
2017-08-13T11:12:44.683Z,1012.3
2017-08-13T11:13:47.535Z,1012.2
2017-08-13T11:14:50.038Z,1012.2
2017-08-13T11:15:52.524Z,1012.3
2017-08-13T11:16:55.033Z,1012.3
2017-08-13T11:17:57.530Z,1012.3
2017-08-13T11:19:00.374Z,1012.3
2017-08-13T11:20:03.884Z,1012.3
2017-08-13T11:21:06.414Z,1012.3
2017-08-13T11:22:08.913Z,1012.3
2017-08-13T11:23:11.765Z,1012.3
2017-08-13T11:24:14.262Z,1012.3
2017-08-13T11:25:17.546Z,1012.3
2017-08-13T11:26:20.079Z,1012.2
2017-08-13T11:27:22.601Z,1012.2
2017-08-13T11:28:25.103Z,1012.3
2017-08-13T11:29:28.299Z,1012.2
2017-08-13T11:30:30.794Z,1012.2
2017-08-13T11:31:33.641Z,1012.2
2017-08-13T11:32:36.496Z,1012.2
2017-08-13T11:33:39.350Z,1012.2
2017-08-13T11:34:41.828Z,1012.2
2017-08-13T11:35:44.351Z,1012.2
2017-08-13T11:36:46.854Z,1012.2
2017-08-13T11:37:49.708Z,1012.2
2017-08-13T11:38:52.215Z,1012.2
2017-08-13T11:39:54.695Z,1012.1
2017-08-13T11:40:57.187Z,1012.2
2017-08-13T11:41:59.697Z,1012.2
2017-08-13T11:43:02.189Z,1012.1
2017-08-13T11:44:04.688Z,1012.1
2017-08-13T11:45:07.535Z,1012.2
2017-08-13T11:46:10.046Z,1012.2
2017-08-13T11:47:12.565Z,1012.2
2017-08-13T11:48:15.409Z,1012.2
2017-08-13T11:49:18.591Z,1012.2
2017-08-13T11:50:21.091Z,1012.2
2017-08-13T11:51:23.598Z,1012.2
2017-08-13T11:52:26.448Z,1012.2
2017-08-13T11:53:28.965Z,1012.3
2017-08-13T11:54:32.202Z,1012.2
2017-08-13T11:55:34.821Z,1012.2
2017-08-13T11:56:37.672Z,1012.2
2017-08-13T11:57:40.498Z,1012.2
2017-08-13T11:58:43.005Z,1012.3
2017-08-13T11:59:45.853Z,1012.3
2017-08-13T12:00:48.348Z,1012.3
2017-08-13T12:01:51.196Z,1012.2
2017-08-13T12:02:53.708Z,1012.2
2017-08-13T12:03:56.210Z,1012.2
2017-08-13T12:04:58.727Z,1012.2
2017-08-13T12:06:01.281Z,1012.2
2017-08-13T12:07:04.106Z,1012.2
2017-08-13T12:08:06.633Z,1012.2
2017-08-13T12:09:09.422Z,1012.2
2017-08-13T12:10:11.942Z,1012.1
2017-08-13T12:11:14.448Z,1012.1
2017-08-13T12:12:16.988Z,1012.2
2017-08-13T12:13:19.468Z,1012.2
2017-08-13T12:14:21.961Z,1012.2
2017-08-13T12:15:25.159Z,1012.2
2017-08-13T12:16:27.648Z,1012.1
2017-08-13T12:17:30.159Z,1012.2
2017-08-13T12:18:32.682Z,1012.1
2017-08-13T12:19:35.203Z,1012.1
2017-08-13T12:20:37.694Z,1012.1
2017-08-13T12:21:40.191Z,1012.1
2017-08-13T12:22:42.694Z,1012.1
2017-08-13T12:23:45.197Z,1012.2
2017-08-13T12:24:47.689Z,1012.1
2017-08-13T12:25:50.213Z,1012.1
2017-08-13T12:26:52.710Z,1012.1
2017-08-13T12:27:55.221Z,1012.1
2017-08-13T12:28:57.717Z,1012.1
2017-08-13T12:30:00.223Z,1012.1
2017-08-13T12:31:03.089Z,1012.1
2017-08-13T12:32:05.934Z,1012.1
2017-08-13T12:33:08.436Z,1012.1
2017-08-13T12:34:11.292Z,1012.1
2017-08-13T12:35:13.812Z,1012.1
2017-08-13T12:36:16.327Z,1012.1
2017-08-13T12:37:18.841Z,1012.1
2017-08-13T12:38:21.786Z,1012.1
2017-08-13T12:39:24.583Z,1012.1
2017-08-13T12:40:27.116Z,1012.1
2017-08-13T12:41:29.623Z,1012.1
2017-08-13T12:42:32.135Z,1012.2
2017-08-13T12:43:34.981Z,1012.2
2017-08-13T12:44:37.810Z,1012.2
2017-08-13T12:45:40.314Z,1012.2
2017-08-13T12:46:43.163Z,1012.2
2017-08-13T12:47:45.649Z,1012.1
2017-08-13T12:48:48.147Z,1012.1
2017-08-13T12:49:50.647Z,1012.2
2017-08-13T12:50:53.487Z,1012.2
2017-08-13T12:51:56.679Z,1012.2
2017-08-13T12:52:59.534Z,1012.2
2017-08-13T12:54:02.353Z,1012.2
2017-08-13T12:55:04.853Z,1012.2
2017-08-13T12:56:07.740Z,1012.2
2017-08-13T12:57:10.249Z,1012.1
2017-08-13T12:58:12.757Z,1012.1
2017-08-13T12:59:15.269Z,1012.1
2017-08-13T13:00:17.779Z,1012.1
2017-08-13T13:01:20.625Z,1012.1
2017-08-13T13:02:23.805Z,1012.1
2017-08-13T13:03:26.286Z,1012.2
2017-08-13T13:04:29.264Z,1012.1
2017-08-13T13:05:32.521Z,1012.1